sensor_id;sensor_type;location;lat;lon;timestamp;temperature;humidity
78345;DHT22;67620;51.134;6.548;2023-03-03T00:02:15;3.70;68.20
78345;DHT22;67620;51.134;6.548;2023-03-03T00:04:40;3.60;68.50
78345;DHT22;67620;51.134;6.548;2023-03-03T00:07:06;3.60;68.60
78345;DHT22;67620;51.134;6.548;2023-03-03T00:09:31;3.50;68.60
78345;DHT22;67620;51.134;6.548;2023-03-03T00:11:58;3.50;68.60
78345;DHT22;67620;51.134;6.548;2023-03-03T00:14:29;3.60;68.60
78345;DHT22;67620;51.134;6.548;2023-03-03T00:16:56;3.50;68.50
78345;DHT22;67620;51.134;6.548;2023-03-03T00:19:22;3.50;68.50
78345;DHT22;67620;51.134;6.548;2023-03-03T00:21:49;3.50;68.60
78345;DHT22;67620;51.134;6.548;2023-03-03T00:24:23;3.40;68.50
78345;DHT22;67620;51.134;6.548;2023-03-03T00:26:52;3.50;68.30
78345;DHT22;67620;51.134;6.548;2023-03-03T00:29:29;3.40;68.70
78345;DHT22;67620;51.134;6.548;2023-03-03T00:32:25;3.30;69.20
78345;DHT22;67620;51.134;6.548;2023-03-03T00:34:53;3.30;69.00
78345;DHT22;67620;51.134;6.548;2023-03-03T00:39:51;3.20;69.60
78345;DHT22;67620;51.134;6.548;2023-03-03T00:42:17;3.30;69.70
78345;DHT22;67620;51.134;6.548;2023-03-03T00:44:46;3.30;69.90
78345;DHT22;67620;51.134;6.548;2023-03-03T00:47:30;3.30;69.70
78345;DHT22;67620;51.134;6.548;2023-03-03T00:52:33;3.30;70.40
78345;DHT22;67620;51.134;6.548;2023-03-03T00:54:59;3.30;70.70
78345;DHT22;67620;51.134;6.548;2023-03-03T00:57:24;3.30;70.60
78345;DHT22;67620;51.134;6.548;2023-03-03T00:59:50;3.30;70.70
78345;DHT22;67620;51.134;6.548;2023-03-03T01:02:15;3.30;71.10
78345;DHT22;67620;51.134;6.548;2023-03-03T01:04:43;3.20;71.10
78345;DHT22;67620;51.134;6.548;2023-03-03T01:07:11;3.30;71.20
78345;DHT22;67620;51.134;6.548;2023-03-03T01:09:37;3.30;71.00
78345;DHT22;67620;51.134;6.548;2023-03-03T01:12:02;3.30;71.10
78345;DHT22;67620;51.134;6.548;2023-03-03T01:14:28;3.30;71.20
78345;DHT22;67620;51.134;6.548;2023-03-03T01:16:53;3.30;71.30
78345;DHT22;67620;51.134;6.548;2023-03-03T01:19:19;3.20;71.40
78345;DHT22;67620;51.134;6.548;2023-03-03T01:21:44;3.20;71.50
78345;DHT22;67620;51.134;6.548;2023-03-03T01:24:10;3.20;71.90
78345;DHT22;67620;51.134;6.548;2023-03-03T01:26:35;3.20;71.70
78345;DHT22;67620;51.134;6.548;2023-03-03T01:29:01;3.30;71.50
78345;DHT22;67620;51.134;6.548;2023-03-03T01:31:26;3.30;71.60
78345;DHT22;67620;51.134;6.548;2023-03-03T01:33:52;3.10;72.00
78345;DHT22;67620;51.134;6.548;2023-03-03T01:36:23;3.10;72.30
78345;DHT22;67620;51.134;6.548;2023-03-03T01:38:48;3.20;72.00
78345;DHT22;67620;51.134;6.548;2023-03-03T01:41:14;3.20;72.00
78345;DHT22;67620;51.134;6.548;2023-03-03T01:43:44;2.90;72.90
78345;DHT22;67620;51.134;6.548;2023-03-03T01:46:28;3.00;72.90
78345;DHT22;67620;51.134;6.548;2023-03-03T01:48:57;3.00;72.60
78345;DHT22;67620;51.134;6.548;2023-03-03T01:51:59;2.90;72.90
78345;DHT22;67620;51.134;6.548;2023-03-03T01:54:44;3.10;72.40
78345;DHT22;67620;51.134;6.548;2023-03-03T01:57:15;3.00;72.90
78345;DHT22;67620;51.134;6.548;2023-03-03T01:59:46;3.10;72.50
78345;DHT22;67620;51.134;6.548;2023-03-03T02:02:14;3.10;72.30
78345;DHT22;67620;51.134;6.548;2023-03-03T02:04:39;3.00;72.70
78345;DHT22;67620;51.134;6.548;2023-03-03T02:07:09;3.10;72.60
78345;DHT22;67620;51.134;6.548;2023-03-03T02:12:31;3.00;73.00
78345;DHT22;67620;51.134;6.548;2023-03-03T02:14:58;3.00;73.10
78345;DHT22;67620;51.134;6.548;2023-03-03T02:17:24;3.00;73.10
78345;DHT22;67620;51.134;6.548;2023-03-03T02:20:08;3.10;73.10
78345;DHT22;67620;51.134;6.548;2023-03-03T02:22:46;3.10;72.70
78345;DHT22;67620;51.134;6.548;2023-03-03T02:25:22;3.10;72.50
78345;DHT22;67620;51.134;6.548;2023-03-03T02:27:51;3.00;72.80
78345;DHT22;67620;51.134;6.548;2023-03-03T02:30:20;3.00;72.70
78345;DHT22;67620;51.134;6.548;2023-03-03T02:32:46;3.00;72.70
78345;DHT22;67620;51.134;6.548;2023-03-03T02:35:30;2.90;72.70
78345;DHT22;67620;51.134;6.548;2023-03-03T02:38:01;2.90;73.10
78345;DHT22;67620;51.134;6.548;2023-03-03T02:40:30;2.90;72.80
78345;DHT22;67620;51.134;6.548;2023-03-03T02:42:58;2.90;72.90
78345;DHT22;67620;51.134;6.548;2023-03-03T02:45:25;3.00;72.60
78345;DHT22;67620;51.134;6.548;2023-03-03T02:47:51;2.90;72.90
78345;DHT22;67620;51.134;6.548;2023-03-03T02:50:16;2.90;73.10
78345;DHT22;67620;51.134;6.548;2023-03-03T02:52:42;2.90;73.10
78345;DHT22;67620;51.134;6.548;2023-03-03T02:55:08;2.90;73.20
78345;DHT22;67620;51.134;6.548;2023-03-03T02:57:33;2.90;73.00
78345;DHT22;67620;51.134;6.548;2023-03-03T02:59:59;3.00;72.90
78345;DHT22;67620;51.134;6.548;2023-03-03T03:02:24;3.00;72.70
78345;DHT22;67620;51.134;6.548;2023-03-03T03:04:51;2.90;72.90
78345;DHT22;67620;51.134;6.548;2023-03-03T03:07:17;2.90;73.00
78345;DHT22;67620;51.134;6.548;2023-03-03T03:09:42;2.90;73.00
78345;DHT22;67620;51.134;6.548;2023-03-03T03:12:08;2.90;73.10
78345;DHT22;67620;51.134;6.548;2023-03-03T03:14:34;2.90;72.90
78345;DHT22;67620;51.134;6.548;2023-03-03T03:16:59;2.80;73.40
78345;DHT22;67620;51.134;6.548;2023-03-03T03:19:25;2.90;73.10
78345;DHT22;67620;51.134;6.548;2023-03-03T03:21:51;2.80;73.30
78345;DHT22;67620;51.134;6.548;2023-03-03T03:24:16;2.80;73.30
78345;DHT22;67620;51.134;6.548;2023-03-03T03:26:42;2.90;73.20
78345;DHT22;67620;51.134;6.548;2023-03-03T03:29:07;2.90;73.20
78345;DHT22;67620;51.134;6.548;2023-03-03T03:31:33;2.90;73.30
78345;DHT22;67620;51.134;6.548;2023-03-03T03:33:58;2.90;73.10
78345;DHT22;67620;51.134;6.548;2023-03-03T03:36:25;2.90;73.10
78345;DHT22;67620;51.134;6.548;2023-03-03T03:38:51;2.90;73.40
78345;DHT22;67620;51.134;6.548;2023-03-03T03:41:16;2.70;73.80
78345;DHT22;67620;51.134;6.548;2023-03-03T03:43:42;2.80;73.90
78345;DHT22;67620;51.134;6.548;2023-03-03T03:46:08;2.80;73.70
78345;DHT22;67620;51.134;6.548;2023-03-03T03:48:34;2.80;73.40
78345;DHT22;67620;51.134;6.548;2023-03-03T03:50:59;2.90;73.20
78345;DHT22;67620;51.134;6.548;2023-03-03T03:53:25;2.90;73.10
78345;DHT22;67620;51.134;6.548;2023-03-03T03:55:50;2.80;73.50
78345;DHT22;67620;51.134;6.548;2023-03-03T03:58:17;2.80;73.60
78345;DHT22;67620;51.134;6.548;2023-03-03T04:00:44;2.70;73.80
78345;DHT22;67620;51.134;6.548;2023-03-03T04:03:10;2.80;73.70
78345;DHT22;67620;51.134;6.548;2023-03-03T04:05:38;2.80;73.60
78345;DHT22;67620;51.134;6.548;2023-03-03T04:08:04;2.80;73.30
78345;DHT22;67620;51.134;6.548;2023-03-03T04:10:30;2.70;73.60
78345;DHT22;67620;51.134;6.548;2023-03-03T04:12:56;2.70;73.70
78345;DHT22;67620;51.134;6.548;2023-03-03T04:15:22;2.70;73.40
78345;DHT22;67620;51.134;6.548;2023-03-03T04:17:47;2.80;73.60
78345;DHT22;67620;51.134;6.548;2023-03-03T04:20:13;2.80;73.60
78345;DHT22;67620;51.134;6.548;2023-03-03T04:22:40;2.80;73.60
78345;DHT22;67620;51.134;6.548;2023-03-03T04:25:06;2.80;73.70
78345;DHT22;67620;51.134;6.548;2023-03-03T04:27:33;2.80;73.70
78345;DHT22;67620;51.134;6.548;2023-03-03T04:29:59;2.80;73.60
78345;DHT22;67620;51.134;6.548;2023-03-03T04:32:24;2.80;73.70
78345;DHT22;67620;51.134;6.548;2023-03-03T04:34:50;2.80;73.70
78345;DHT22;67620;51.134;6.548;2023-03-03T04:37:15;2.70;74.20
78345;DHT22;67620;51.134;6.548;2023-03-03T04:39:41;2.80;74.10
78345;DHT22;67620;51.134;6.548;2023-03-03T04:42:06;2.80;74.00
78345;DHT22;67620;51.134;6.548;2023-03-03T04:44:32;2.80;74.20
78345;DHT22;67620;51.134;6.548;2023-03-03T04:46:57;2.80;74.10
78345;DHT22;67620;51.134;6.548;2023-03-03T04:49:23;2.80;74.20
78345;DHT22;67620;51.134;6.548;2023-03-03T04:51:48;2.80;74.10
78345;DHT22;67620;51.134;6.548;2023-03-03T04:54:14;2.80;73.90
78345;DHT22;67620;51.134;6.548;2023-03-03T04:56:39;2.80;73.90
78345;DHT22;67620;51.134;6.548;2023-03-03T04:59:05;2.70;74.20
78345;DHT22;67620;51.134;6.548;2023-03-03T05:01:30;2.60;74.50
78345;DHT22;67620;51.134;6.548;2023-03-03T05:03:56;2.70;74.30
78345;DHT22;67620;51.134;6.548;2023-03-03T05:06:21;2.70;74.60
78345;DHT22;67620;51.134;6.548;2023-03-03T05:08:47;2.70;74.30
78345;DHT22;67620;51.134;6.548;2023-03-03T05:11:12;2.70;74.10
78345;DHT22;67620;51.134;6.548;2023-03-03T05:13:38;2.80;74.10
78345;DHT22;67620;51.134;6.548;2023-03-03T05:16:04;2.80;73.90
78345;DHT22;67620;51.134;6.548;2023-03-03T05:18:30;2.70;74.10
78345;DHT22;67620;51.134;6.548;2023-03-03T05:20:55;2.80;74.00
78345;DHT22;67620;51.134;6.548;2023-03-03T05:23:21;2.80;74.10
78345;DHT22;67620;51.134;6.548;2023-03-03T05:25:48;2.80;74.00
78345;DHT22;67620;51.134;6.548;2023-03-03T05:28:14;2.70;74.20
78345;DHT22;67620;51.134;6.548;2023-03-03T05:30:40;2.80;74.20
78345;DHT22;67620;51.134;6.548;2023-03-03T05:33:06;2.80;74.10
78345;DHT22;67620;51.134;6.548;2023-03-03T05:35:32;2.80;74.20
78345;DHT22;67620;51.134;6.548;2023-03-03T05:37:58;2.80;74.20
78345;DHT22;67620;51.134;6.548;2023-03-03T05:40:24;2.60;74.30
78345;DHT22;67620;51.134;6.548;2023-03-03T05:42:50;2.70;74.10
78345;DHT22;67620;51.134;6.548;2023-03-03T05:45:16;2.70;74.20
78345;DHT22;67620;51.134;6.548;2023-03-03T05:47:46;2.70;74.10
78345;DHT22;67620;51.134;6.548;2023-03-03T05:50:11;2.70;74.20
78345;DHT22;67620;51.134;6.548;2023-03-03T05:52:37;2.60;74.00
78345;DHT22;67620;51.134;6.548;2023-03-03T05:55:03;2.70;74.20
78345;DHT22;67620;51.134;6.548;2023-03-03T05:57:29;2.70;74.00
78345;DHT22;67620;51.134;6.548;2023-03-03T05:59:54;2.70;73.80
78345;DHT22;67620;51.134;6.548;2023-03-03T06:02:20;2.70;73.60
78345;DHT22;67620;51.134;6.548;2023-03-03T06:04:45;2.70;73.50
78345;DHT22;67620;51.134;6.548;2023-03-03T06:07:11;2.70;73.60
78345;DHT22;67620;51.134;6.548;2023-03-03T06:09:36;2.70;73.50
78345;DHT22;67620;51.134;6.548;2023-03-03T06:12:02;2.70;73.60
78345;DHT22;67620;51.134;6.548;2023-03-03T06:14:28;2.70;73.50
78345;DHT22;67620;51.134;6.548;2023-03-03T06:16:53;2.60;73.70
78345;DHT22;67620;51.134;6.548;2023-03-03T06:19:19;2.60;73.70
78345;DHT22;67620;51.134;6.548;2023-03-03T06:21:44;2.60;73.60
78345;DHT22;67620;51.134;6.548;2023-03-03T06:24:10;2.60;73.80
78345;DHT22;67620;51.134;6.548;2023-03-03T06:26:35;2.50;73.80
78345;DHT22;67620;51.134;6.548;2023-03-03T06:29:01;2.50;73.70
78345;DHT22;67620;51.134;6.548;2023-03-03T06:31:27;2.60;73.60
78345;DHT22;67620;51.134;6.548;2023-03-03T06:33:53;2.60;73.70
78345;DHT22;67620;51.134;6.548;2023-03-03T06:36:19;2.50;73.70
78345;DHT22;67620;51.134;6.548;2023-03-03T06:38:45;2.50;73.80
78345;DHT22;67620;51.134;6.548;2023-03-03T06:41:10;2.50;73.80
78345;DHT22;67620;51.134;6.548;2023-03-03T06:43:37;2.50;73.80
78345;DHT22;67620;51.134;6.548;2023-03-03T06:46:04;2.50;73.60
78345;DHT22;67620;51.134;6.548;2023-03-03T06:48:30;2.50;73.60
78345;DHT22;67620;51.134;6.548;2023-03-03T06:51:00;2.60;73.50
78345;DHT22;67620;51.134;6.548;2023-03-03T06:53:26;2.50;73.70
78345;DHT22;67620;51.134;6.548;2023-03-03T06:55:54;2.50;73.80
78345;DHT22;67620;51.134;6.548;2023-03-03T06:58:21;2.50;73.80
78345;DHT22;67620;51.134;6.548;2023-03-03T07:00:56;2.50;73.60
78345;DHT22;67620;51.134;6.548;2023-03-03T07:03:31;2.50;73.80
78345;DHT22;67620;51.134;6.548;2023-03-03T07:05:57;2.50;74.00
78345;DHT22;67620;51.134;6.548;2023-03-03T07:08:24;2.50;74.00
78345;DHT22;67620;51.134;6.548;2023-03-03T07:10:51;2.50;73.80
78345;DHT22;67620;51.134;6.548;2023-03-03T07:13:23;2.40;74.20
78345;DHT22;67620;51.134;6.548;2023-03-03T07:15:51;2.50;73.90
78345;DHT22;67620;51.134;6.548;2023-03-03T07:18:33;2.50;73.90
78345;DHT22;67620;51.134;6.548;2023-03-03T07:21:18;2.50;74.00
78345;DHT22;67620;51.134;6.548;2023-03-03T07:23:46;2.50;74.00
78345;DHT22;67620;51.134;6.548;2023-03-03T07:26:15;2.50;73.90
78345;DHT22;67620;51.134;6.548;2023-03-03T07:28:43;2.40;74.10
78345;DHT22;67620;51.134;6.548;2023-03-03T07:31:29;2.50;74.00
78345;DHT22;67620;51.134;6.548;2023-03-03T07:33:56;2.50;74.10
78345;DHT22;67620;51.134;6.548;2023-03-03T07:38:53;2.50;74.00
78345;DHT22;67620;51.134;6.548;2023-03-03T07:41:20;2.50;74.10
78345;DHT22;67620;51.134;6.548;2023-03-03T07:43:50;2.50;74.30
78345;DHT22;67620;51.134;6.548;2023-03-03T07:46:28;2.50;74.10
78345;DHT22;67620;51.134;6.548;2023-03-03T07:48:56;2.50;73.90
78345;DHT22;67620;51.134;6.548;2023-03-03T07:51:27;2.50;73.70
78345;DHT22;67620;51.134;6.548;2023-03-03T07:56:42;2.40;73.90
78345;DHT22;67620;51.134;6.548;2023-03-03T07:59:21;2.50;73.90
78345;DHT22;67620;51.134;6.548;2023-03-03T08:01:54;2.50;74.00
78345;DHT22;67620;51.134;6.548;2023-03-03T08:04:38;2.50;73.90
78345;DHT22;67620;51.134;6.548;2023-03-03T08:07:11;2.50;73.70
78345;DHT22;67620;51.134;6.548;2023-03-03T08:09:43;2.50;74.00
78345;DHT22;67620;51.134;6.548;2023-03-03T08:12:23;2.50;74.00
78345;DHT22;67620;51.134;6.548;2023-03-03T08:14:53;2.50;73.80
78345;DHT22;67620;51.134;6.548;2023-03-03T08:17:22;2.50;73.70
78345;DHT22;67620;51.134;6.548;2023-03-03T08:19:49;2.50;73.40
78345;DHT22;67620;51.134;6.548;2023-03-03T08:22:34;2.50;73.40
78345;DHT22;67620;51.134;6.548;2023-03-03T08:25:00;2.50;73.30
78345;DHT22;67620;51.134;6.548;2023-03-03T08:27:26;2.60;73.20
78345;DHT22;67620;51.134;6.548;2023-03-03T08:29:51;2.60;73.20
78345;DHT22;67620;51.134;6.548;2023-03-03T08:32:17;2.60;73.20
78345;DHT22;67620;51.134;6.548;2023-03-03T08:34:43;2.60;73.30
78345;DHT22;67620;51.134;6.548;2023-03-03T08:37:09;2.60;73.30
78345;DHT22;67620;51.134;6.548;2023-03-03T08:39:34;2.60;73.20
78345;DHT22;67620;51.134;6.548;2023-03-03T08:42:00;2.60;73.40
78345;DHT22;67620;51.134;6.548;2023-03-03T08:44:25;2.60;73.30
78345;DHT22;67620;51.134;6.548;2023-03-03T08:46:51;2.60;73.40
78345;DHT22;67620;51.134;6.548;2023-03-03T08:49:16;2.60;73.20
78345;DHT22;67620;51.134;6.548;2023-03-03T08:51:42;2.60;73.20
78345;DHT22;67620;51.134;6.548;2023-03-03T08:54:07;2.60;73.20
78345;DHT22;67620;51.134;6.548;2023-03-03T08:56:33;2.60;72.80
78345;DHT22;67620;51.134;6.548;2023-03-03T08:58:58;2.60;73.10
78345;DHT22;67620;51.134;6.548;2023-03-03T09:01:24;2.60;73.00
78345;DHT22;67620;51.134;6.548;2023-03-03T09:03:50;2.70;72.70
78345;DHT22;67620;51.134;6.548;2023-03-03T09:06:15;2.60;72.70
78345;DHT22;67620;51.134;6.548;2023-03-03T09:08:41;2.60;73.10
78345;DHT22;67620;51.134;6.548;2023-03-03T09:11:11;2.70;73.00
78345;DHT22;67620;51.134;6.548;2023-03-03T09:13:37;2.70;72.60
78345;DHT22;67620;51.134;6.548;2023-03-03T09:16:12;2.70;72.60
78345;DHT22;67620;51.134;6.548;2023-03-03T09:18:38;2.70;72.30
78345;DHT22;67620;51.134;6.548;2023-03-03T09:21:25;2.80;72.20
78345;DHT22;67620;51.134;6.548;2023-03-03T09:23:55;2.80;72.50
78345;DHT22;67620;51.134;6.548;2023-03-03T09:29:00;2.80;72.00
78345;DHT22;67620;51.134;6.548;2023-03-03T09:31:48;2.80;72.20
78345;DHT22;67620;51.134;6.548;2023-03-03T09:34:22;2.90;71.90
78345;DHT22;67620;51.134;6.548;2023-03-03T09:36:48;2.80;71.60
78345;DHT22;67620;51.134;6.548;2023-03-03T09:39:22;2.90;71.60
78345;DHT22;67620;51.134;6.548;2023-03-03T09:47:14;2.90;72.10
78345;DHT22;67620;51.134;6.548;2023-03-03T10:07:00;2.90;71.50
78345;DHT22;67620;51.134;6.548;2023-03-03T10:12:04;3.00;71.80
78345;DHT22;67620;51.134;6.548;2023-03-03T10:20:29;3.10;71.40
78345;DHT22;67620;51.134;6.548;2023-03-03T10:26:36;3.10;71.60
78345;DHT22;67620;51.134;6.548;2023-03-03T10:29:23;3.00;71.50
78345;DHT22;67620;51.134;6.548;2023-03-03T10:35:50;3.10;71.90
78345;DHT22;67620;51.134;6.548;2023-03-03T10:38:11;3.20;71.30
78345;DHT22;67620;51.134;6.548;2023-03-03T10:43:56;3.20;71.30
78345;DHT22;67620;51.134;6.548;2023-03-03T10:46:57;3.30;70.90
78345;DHT22;67620;51.134;6.548;2023-03-03T10:58:42;3.20;71.40
78345;DHT22;67620;51.134;6.548;2023-03-03T11:01:29;3.20;71.70
78345;DHT22;67620;51.134;6.548;2023-03-03T11:04:34;3.30;71.50
78345;DHT22;67620;51.134;6.548;2023-03-03T11:07:26;3.30;71.00
78345;DHT22;67620;51.134;6.548;2023-03-03T11:12:49;3.40;71.10
78345;DHT22;67620;51.134;6.548;2023-03-03T11:20:55;3.40;70.00
78345;DHT22;67620;51.134;6.548;2023-03-03T11:23:41;3.50;69.90
78345;DHT22;67620;51.134;6.548;2023-03-03T11:32:18;3.50;70.00
78345;DHT22;67620;51.134;6.548;2023-03-03T11:34:59;3.50;69.90
78345;DHT22;67620;51.134;6.548;2023-03-03T11:37:44;3.50;69.60
78345;DHT22;67620;51.134;6.548;2023-03-03T11:40:24;3.50;69.80
78345;DHT22;67620;51.134;6.548;2023-03-03T11:43:21;3.50;69.70
78345;DHT22;67620;51.134;6.548;2023-03-03T11:45:55;3.50;70.00
78345;DHT22;67620;51.134;6.548;2023-03-03T11:48:38;3.60;69.80
78345;DHT22;67620;51.134;6.548;2023-03-03T11:51:13;3.60;70.20
78345;DHT22;67620;51.134;6.548;2023-03-03T11:53:56;3.50;70.30
78345;DHT22;67620;51.134;6.548;2023-03-03T11:56:28;3.60;70.70
78345;DHT22;67620;51.134;6.548;2023-03-03T11:59:19;3.60;70.30
78345;DHT22;67620;51.134;6.548;2023-03-03T12:01:52;3.70;69.70
78345;DHT22;67620;51.134;6.548;2023-03-03T12:04:31;3.70;69.30
78345;DHT22;67620;51.134;6.548;2023-03-03T12:10:01;3.70;70.00
78345;DHT22;67620;51.134;6.548;2023-03-03T12:12:34;3.70;69.70
78345;DHT22;67620;51.134;6.548;2023-03-03T12:15:03;3.80;69.60
78345;DHT22;67620;51.134;6.548;2023-03-03T12:23:31;3.80;69.10
78345;DHT22;67620;51.134;6.548;2023-03-03T12:26:29;3.80;69.00
78345;DHT22;67620;51.134;6.548;2023-03-03T12:29:04;3.80;68.60
78345;DHT22;67620;51.134;6.548;2023-03-03T12:31:37;3.80;68.90
78345;DHT22;67620;51.134;6.548;2023-03-03T12:34:23;3.80;68.50
78345;DHT22;67620;51.134;6.548;2023-03-03T12:39:53;3.90;68.60
78345;DHT22;67620;51.134;6.548;2023-03-03T12:42:52;3.90;68.90
78345;DHT22;67620;51.134;6.548;2023-03-03T12:46:16;3.90;68.70
78345;DHT22;67620;51.134;6.548;2023-03-03T12:48:41;3.80;69.00
78345;DHT22;67620;51.134;6.548;2023-03-03T12:51:30;3.90;68.80
78345;DHT22;67620;51.134;6.548;2023-03-03T12:54:24;3.90;68.40
78345;DHT22;67620;51.134;6.548;2023-03-03T12:59:33;4.00;68.10
78345;DHT22;67620;51.134;6.548;2023-03-03T13:02:31;4.00;68.30
78345;DHT22;67620;51.134;6.548;2023-03-03T13:05:43;4.00;68.30
78345;DHT22;67620;51.134;6.548;2023-03-03T13:08:16;4.00;68.20
78345;DHT22;67620;51.134;6.548;2023-03-03T13:13:52;4.10;68.50
78345;DHT22;67620;51.134;6.548;2023-03-03T13:16:37;4.00;68.50
78345;DHT22;67620;51.134;6.548;2023-03-03T13:19:24;4.10;68.40
78345;DHT22;67620;51.134;6.548;2023-03-03T13:22:01;4.10;68.50
78345;DHT22;67620;51.134;6.548;2023-03-03T13:24:52;4.10;68.70
78345;DHT22;67620;51.134;6.548;2023-03-03T13:27:23;4.10;68.60
78345;DHT22;67620;51.134;6.548;2023-03-03T13:30:02;4.10;68.60
78345;DHT22;67620;51.134;6.548;2023-03-03T13:32:40;4.20;68.30
78345;DHT22;67620;51.134;6.548;2023-03-03T13:37:52;4.10;68.70
78345;DHT22;67620;51.134;6.548;2023-03-03T13:40:23;4.20;68.70
78345;DHT22;67620;51.134;6.548;2023-03-03T13:45:23;4.20;68.30
78345;DHT22;67620;51.134;6.548;2023-03-03T13:48:23;4.20;68.00
78345;DHT22;67620;51.134;6.548;2023-03-03T13:51:47;4.20;68.30
78345;DHT22;67620;51.134;6.548;2023-03-03T13:54:09;4.20;68.10
78345;DHT22;67620;51.134;6.548;2023-03-03T13:57:03;4.30;67.80
78345;DHT22;67620;51.134;6.548;2023-03-03T14:02:40;4.30;67.90
78345;DHT22;67620;51.134;6.548;2023-03-03T14:05:14;4.30;68.20
78345;DHT22;67620;51.134;6.548;2023-03-03T14:10:46;4.30;67.90
78345;DHT22;67620;51.134;6.548;2023-03-03T14:13:48;4.30;68.00
78345;DHT22;67620;51.134;6.548;2023-03-03T14:16:58;4.30;68.00
78345;DHT22;67620;51.134;6.548;2023-03-03T14:19:27;4.30;68.00
78345;DHT22;67620;51.134;6.548;2023-03-03T14:22:17;4.30;68.00
78345;DHT22;67620;51.134;6.548;2023-03-03T14:25:07;4.30;68.00
78345;DHT22;67620;51.134;6.548;2023-03-03T14:30:32;4.40;67.70
78345;DHT22;67620;51.134;6.548;2023-03-03T14:33:00;4.40;67.90
78345;DHT22;67620;51.134;6.548;2023-03-03T14:35:42;4.40;67.40
78345;DHT22;67620;51.134;6.548;2023-03-03T14:40:37;4.40;67.30
78345;DHT22;67620;51.134;6.548;2023-03-03T14:43:24;4.40;67.80
78345;DHT22;67620;51.134;6.548;2023-03-03T14:45:52;4.40;67.90
78345;DHT22;67620;51.134;6.548;2023-03-03T14:48:19;4.50;68.00
78345;DHT22;67620;51.134;6.548;2023-03-03T14:50:57;4.50;67.90
78345;DHT22;67620;51.134;6.548;2023-03-03T14:53:41;4.50;67.30
78345;DHT22;67620;51.134;6.548;2023-03-03T14:56:35;4.50;67.20
78345;DHT22;67620;51.134;6.548;2023-03-03T14:59:22;4.50;66.70
78345;DHT22;67620;51.134;6.548;2023-03-03T15:04:40;4.60;67.00
78345;DHT22;67620;51.134;6.548;2023-03-03T15:07:28;4.60;67.10
78345;DHT22;67620;51.134;6.548;2023-03-03T15:09:55;4.60;67.10
78345;DHT22;67620;51.134;6.548;2023-03-03T15:12:22;4.60;67.10
78345;DHT22;67620;51.134;6.548;2023-03-03T15:17:40;4.70;67.20
78345;DHT22;67620;51.134;6.548;2023-03-03T15:20:31;4.60;66.60
78345;DHT22;67620;51.134;6.548;2023-03-03T15:28:57;4.70;66.90
78345;DHT22;67620;51.134;6.548;2023-03-03T15:34:36;4.70;66.80
78345;DHT22;67620;51.134;6.548;2023-03-03T15:37:17;4.70;66.70
78345;DHT22;67620;51.134;6.548;2023-03-03T15:42:51;4.70;66.90
78345;DHT22;67620;51.134;6.548;2023-03-03T15:59:38;4.80;66.50
78345;DHT22;67620;51.134;6.548;2023-03-03T16:02:20;4.80;66.50
78345;DHT22;67620;51.134;6.548;2023-03-03T16:05:38;4.80;66.60
78345;DHT22;67620;51.134;6.548;2023-03-03T16:10:38;4.90;66.60
78345;DHT22;67620;51.134;6.548;2023-03-03T16:16:03;4.90;66.50
78345;DHT22;67620;51.134;6.548;2023-03-03T16:24:19;4.90;66.40
78345;DHT22;67620;51.134;6.548;2023-03-03T16:26:51;4.90;66.40
78345;DHT22;67620;51.134;6.548;2023-03-03T16:29:37;4.90;66.50
78345;DHT22;67620;51.134;6.548;2023-03-03T16:32:31;4.80;66.90
78345;DHT22;67620;51.134;6.548;2023-03-03T16:35:24;4.80;66.90
78345;DHT22;67620;51.134;6.548;2023-03-03T16:37:58;4.80;66.90
78345;DHT22;67620;51.134;6.548;2023-03-03T16:40:32;4.80;66.90
78345;DHT22;67620;51.134;6.548;2023-03-03T16:45:39;4.80;67.10
78345;DHT22;67620;51.134;6.548;2023-03-03T16:48:32;4.70;67.20
78345;DHT22;67620;51.134;6.548;2023-03-03T16:51:32;4.70;67.10
78345;DHT22;67620;51.134;6.548;2023-03-03T16:54:10;4.60;67.20
78345;DHT22;67620;51.134;6.548;2023-03-03T16:56:47;4.60;67.20
78345;DHT22;67620;51.134;6.548;2023-03-03T16:59:54;4.50;67.10
78345;DHT22;67620;51.134;6.548;2023-03-03T17:02:54;4.50;67.10
78345;DHT22;67620;51.134;6.548;2023-03-03T17:25:07;4.00;67.80
78345;DHT22;67620;51.134;6.548;2023-03-03T17:36:06;3.60;69.60
78345;DHT22;67620;51.134;6.548;2023-03-03T17:45:08;3.70;69.10
78345;DHT22;67620;51.134;6.548;2023-03-03T17:48:10;3.60;68.90
78345;DHT22;67620;51.134;6.548;2023-03-03T17:50:55;3.40;69.50
78345;DHT22;67620;51.134;6.548;2023-03-03T17:56:28;3.40;69.50
78345;DHT22;67620;51.134;6.548;2023-03-03T18:01:26;3.30;69.30
78345;DHT22;67620;51.134;6.548;2023-03-03T18:03:59;3.30;69.30
78345;DHT22;67620;51.134;6.548;2023-03-03T18:09:43;3.20;69.40
78345;DHT22;67620;51.134;6.548;2023-03-03T18:12:41;3.20;69.50
78345;DHT22;67620;51.134;6.548;2023-03-03T18:18:22;3.20;68.90
78345;DHT22;67620;51.134;6.548;2023-03-03T18:21:14;3.10;68.90
78345;DHT22;67620;51.134;6.548;2023-03-03T18:23:42;3.10;68.50
78345;DHT22;67620;51.134;6.548;2023-03-03T18:26:28;3.00;68.50
78345;DHT22;67620;51.134;6.548;2023-03-03T18:29:20;3.00;68.50
78345;DHT22;67620;51.134;6.548;2023-03-03T18:32:02;2.90;68.80
78345;DHT22;67620;51.134;6.548;2023-03-03T18:37:36;2.80;69.70
78345;DHT22;67620;51.134;6.548;2023-03-03T18:42:37;2.70;70.20
78345;DHT22;67620;51.134;6.548;2023-03-03T18:48:10;2.70;70.90
78345;DHT22;67620;51.134;6.548;2023-03-03T18:50:47;2.80;70.80
78345;DHT22;67620;51.134;6.548;2023-03-03T18:53:15;2.80;71.00
78345;DHT22;67620;51.134;6.548;2023-03-03T18:55:47;2.80;71.40
78345;DHT22;67620;51.134;6.548;2023-03-03T19:00:58;2.90;71.70
78345;DHT22;67620;51.134;6.548;2023-03-03T19:06:11;2.90;72.50
78345;DHT22;67620;51.134;6.548;2023-03-03T19:08:54;2.90;73.10
78345;DHT22;67620;51.134;6.548;2023-03-03T19:14:45;3.00;73.10
78345;DHT22;67620;51.134;6.548;2023-03-03T19:22:28;3.10;73.50
78345;DHT22;67620;51.134;6.548;2023-03-03T19:25:24;3.10;73.90
78345;DHT22;67620;51.134;6.548;2023-03-03T19:28:17;3.00;74.40
78345;DHT22;67620;51.134;6.548;2023-03-03T19:30:59;3.00;74.80
78345;DHT22;67620;51.134;6.548;2023-03-03T19:33:49;3.00;74.60
78345;DHT22;67620;51.134;6.548;2023-03-03T19:41:51;3.10;74.60
78345;DHT22;67620;51.134;6.548;2023-03-03T19:47:22;3.00;75.30
78345;DHT22;67620;51.134;6.548;2023-03-03T19:55:17;3.00;76.40
78345;DHT22;67620;51.134;6.548;2023-03-03T19:58:10;3.00;76.60
78345;DHT22;67620;51.134;6.548;2023-03-03T20:01:25;3.00;76.80
78345;DHT22;67620;51.134;6.548;2023-03-03T20:14:50;3.00;77.60
78345;DHT22;67620;51.134;6.548;2023-03-03T20:17:43;3.10;77.70
78345;DHT22;67620;51.134;6.548;2023-03-03T20:23:16;3.00;77.90
78345;DHT22;67620;51.134;6.548;2023-03-03T20:31:05;3.10;77.20
78345;DHT22;67620;51.134;6.548;2023-03-03T20:34:15;3.10;77.00
78345;DHT22;67620;51.134;6.548;2023-03-03T20:40:18;3.10;77.50
78345;DHT22;67620;51.134;6.548;2023-03-03T20:45:48;3.10;77.20
78345;DHT22;67620;51.134;6.548;2023-03-03T20:51:13;3.10;77.60
78345;DHT22;67620;51.134;6.548;2023-03-03T20:53:59;3.10;77.50
78345;DHT22;67620;51.134;6.548;2023-03-03T20:56:40;3.10;77.70